Bayard, NE (69334)

7:33 PM MDT on March 28, 2017 (GMT -0600)
Bridgeport Ampride | | Change Station

Elev 3671 ft 41.67 °N, 103.10 °W | Updated 8 minutes ago

Rain
Rain
40.7 °F
Feels Like 37 °F
N
5.0
Wind Variable Wind from ESE
Gusts 5.0 mph

Today
High -- | Low -- °F
--% Chance of Precip.
Yesterday
High -- | Low -- °F
Precip. -- in
Pressure 30.06 in
Visibility 10.0 miles
Clouds Few 1000 ft
Mostly Cloudy 2400 ft
Overcast 3100 ft
Windchill 37 °F
Dew Point 40 °F
Humidity 96%
Rainfall 1.63 in
Snow Depth Not available.
6:42 AM 7:14 PM
New Moon, 1% visible
METAR KBFF 290053Z AUTO 08007KT 10SM -RA FEW010 BKN024 OVC031 06/04 A3005 RMK AO2 RAB2355 SLP177 P0001 T00610044
Pressure 30.06 in
Visibility 10.0 miles
Clouds Few 1000 ft
Mostly Cloudy 2400 ft
Overcast 3100 ft
Windchill 37 °F
Dew Point 40 °F
Humidity 96%
Rainfall 1.63 in
Snow Depth Not available.
6:42 AM 7:14 PM
New Moon, 1% visible
METAR KBFF 290053Z AUTO 08007KT 10SM -RA FEW010 BKN024 OVC031 06/04 A3005 RMK AO2 RAB2355 SLP177 P0001 T00610044

Get Severe Weather Alerts

Thanks for signing up!

Be on the lookout for a verification email in your inbox.

You'll start receiving the daily forecast at 8 AM.

×

10-Day Weather Forecast

Almanac

Astronomy

Mar. 28, 2017 Rise Set
Actual Time
Civil Twilight
Nautical Twilight
Astronomical Twilight
Moon
Length of Visible Light
Length of Day
Tomorrow will be .
, % of the Moon is Illuminated

Today's Extremes

State Highs State Lows

Community

WunderPhotos

Upload Photos

1,962,540 photos uploaded!

WunderBlog® & News

Nearby

Air Quality

  Air Quality AQ Index Pollutant
Not available.

Snow Depth

Station Depth Elevation

Earthquake Activity

City Distance Mag. Time & Date
Minimum magnitude displayed is 2.5.

Earthquake Activity

City Distance Mag. Time & Date
Minimum magnitude displayed is 2.5.

Coastal Water Temperatures

Place Temperature

Stations

Nearby Weather Stations

Station Location Temp. Windchill Dew Point Humidity Wind Precip. Elev Updated Type
                   

Watches & Warnings

There are currently no watches in effect.